createdAt,value
2023-03-04T00:02:03.628Z,53.60
2023-03-04T00:04:31.317Z,56.53
2023-03-04T00:06:58.758Z,55.27
2023-03-04T00:09:26.272Z,55.33
2023-03-04T00:11:53.666Z,57.37
2023-03-04T00:14:21.291Z,55.43
2023-03-04T00:16:49.321Z,55.10
2023-03-04T00:19:16.743Z,52.00
2023-03-04T00:21:44.124Z,53.60
2023-03-04T00:24:11.570Z,51.93
2023-03-04T00:26:39.008Z,55.13
2023-03-04T00:29:06.619Z,55.10
2023-03-04T00:31:34.117Z,52.30
2023-03-04T00:34:01.679Z,52.97
2023-03-04T00:36:29.210Z,49.97
2023-03-04T00:38:56.682Z,51.90
2023-03-04T00:41:24.139Z,51.03
2023-03-04T00:43:51.709Z,52.20
2023-03-04T00:46:19.198Z,51.47
2023-03-04T00:48:46.765Z,52.83
2023-03-04T00:51:14.285Z,51.13
2023-03-04T00:53:42.403Z,48.90
2023-03-04T00:56:10.019Z,49.57
2023-03-04T00:58:37.536Z,53.83
2023-03-04T01:01:05.056Z,53.30
2023-03-04T01:03:33.188Z,51.73
2023-03-04T01:06:00.598Z,49.13
2023-03-04T01:08:28.127Z,51.40
2023-03-04T01:10:55.527Z,49.80
2023-03-04T01:13:22.992Z,51.83
2023-03-04T01:15:50.528Z,47.57
2023-03-04T01:18:17.977Z,48.40
2023-03-04T01:20:45.467Z,50.67
2023-03-04T01:23:12.961Z,47.63
2023-03-04T01:25:40.391Z,50.27
2023-03-04T01:28:07.858Z,50.07
2023-03-04T01:30:35.303Z,52.37
2023-03-04T01:33:02.822Z,53.10
2023-03-04T01:35:30.292Z,49.27
2023-03-04T01:37:57.806Z,49.60
2023-03-04T01:40:25.255Z,48.67
2023-03-04T01:42:52.758Z,50.23
2023-03-04T01:45:21.022Z,46.47
2023-03-04T01:47:49.261Z,52.70
2023-03-04T01:50:33.573Z,51.57
2023-03-04T01:53:01.393Z,47.10
2023-03-04T01:55:29.688Z,54.27
2023-03-04T01:57:57.721Z,50.23
2023-03-04T02:00:30.983Z,53.90
2023-03-04T02:03:00.834Z,53.23
2023-03-04T02:05:28.975Z,51.07
2023-03-04T02:07:56.891Z,47.30
2023-03-04T02:10:24.872Z,52.07
2023-03-04T02:12:52.732Z,52.93
2023-03-04T02:15:20.414Z,53.10
2023-03-04T02:17:47.884Z,54.80
2023-03-04T02:20:28.942Z,52.57
2023-03-04T02:23:06.500Z,51.40
2023-03-04T02:25:40.618Z,50.17
2023-03-04T02:28:08.215Z,52.67
2023-03-04T02:30:35.753Z,57.30
2023-03-04T02:33:03.221Z,52.27
2023-03-04T02:35:31.197Z,52.03
2023-03-04T02:37:58.723Z,54.50
2023-03-04T02:40:29.527Z,52.00
2023-03-04T02:42:59.600Z,53.07
2023-03-04T02:45:47.110Z,55.47
2023-03-04T02:48:17.065Z,54.43
2023-03-04T02:50:46.217Z,55.47
2023-03-04T02:53:13.817Z,54.00
2023-03-04T02:55:42.454Z,56.57
2023-03-04T02:58:10.943Z,52.27
2023-03-04T03:00:38.820Z,50.10
2023-03-04T03:03:06.620Z,50.93
2023-03-04T03:05:37.221Z,51.60
2023-03-04T03:08:05.115Z,51.87
2023-03-04T03:10:32.807Z,53.70
2023-03-04T03:13:00.824Z,52.33
2023-03-04T03:15:28.465Z,51.80
2023-03-04T03:17:56.694Z,56.20
2023-03-04T03:20:24.162Z,54.43
2023-03-04T03:22:52.397Z,57.27
2023-03-04T03:25:19.974Z,54.67
2023-03-04T03:27:47.568Z,55.87
2023-03-04T03:30:15.968Z,56.77
2023-03-04T03:32:43.448Z,55.20
2023-03-04T03:35:11.123Z,57.33
2023-03-04T03:37:38.689Z,58.23
2023-03-04T03:40:06.456Z,54.97
2023-03-04T03:42:33.962Z,61.03
2023-03-04T03:45:01.384Z,58.60
2023-03-04T03:47:28.909Z,61.87
2023-03-04T03:49:56.327Z,59.63
2023-03-04T03:52:23.758Z,61.17
2023-03-04T03:54:51.237Z,61.23
2023-03-04T03:57:18.720Z,57.97
2023-03-04T03:59:46.132Z,54.40
2023-03-04T04:02:13.753Z,54.17
2023-03-04T04:04:41.351Z,54.53
2023-03-04T04:07:08.859Z,61.77
2023-03-04T04:09:36.323Z,60.10
2023-03-04T04:12:05.341Z,64.43
2023-03-04T04:14:32.919Z,57.80
2023-03-04T04:17:00.588Z,57.00
2023-03-04T04:19:28.028Z,61.33
2023-03-04T04:21:55.555Z,64.37
2023-03-04T04:24:23.015Z,61.03
2023-03-04T04:26:50.478Z,59.90
2023-03-04T04:29:18.017Z,69.43
2023-03-04T04:31:45.563Z,62.97
2023-03-04T04:34:13.101Z,61.07
2023-03-04T04:36:40.629Z,66.83
2023-03-04T04:39:08.101Z,64.53
2023-03-04T04:41:40.268Z,60.87
2023-03-04T04:44:07.740Z,60.50
2023-03-04T04:46:35.328Z,60.23
2023-03-04T04:49:03.052Z,58.93
2023-03-04T04:51:30.494Z,59.20
2023-03-04T04:53:58.005Z,56.37
2023-03-04T04:56:26.720Z,64.07
2023-03-04T04:58:55.214Z,64.17
2023-03-04T05:01:22.680Z,66.37
2023-03-04T05:03:50.750Z,60.90
2023-03-04T05:06:18.185Z,64.83
2023-03-04T05:08:45.652Z,61.73
2023-03-04T05:11:13.076Z,62.50
2023-03-04T05:13:40.611Z,66.83
2023-03-04T05:16:08.462Z,69.77
2023-03-04T05:18:35.965Z,66.03
2023-03-04T05:21:04.378Z,63.73
2023-03-04T05:23:33.058Z,64.77
2023-03-04T05:26:00.661Z,60.60
2023-03-04T05:28:28.182Z,61.27
2023-03-04T05:30:55.822Z,71.23
2023-03-04T05:33:23.350Z,66.03
2023-03-04T05:35:50.931Z,65.57
2023-03-04T05:38:20.316Z,68.03
2023-03-04T05:40:48.351Z,64.20
2023-03-04T05:43:16.243Z,67.57
2023-03-04T05:45:43.716Z,65.60
2023-03-04T05:48:11.477Z,65.47
2023-03-04T05:50:38.878Z,61.87
2023-03-04T05:53:06.337Z,62.20
2023-03-04T05:55:33.740Z,65.17
2023-03-04T05:58:01.200Z,62.43
2023-03-04T06:00:28.707Z,61.97
2023-03-04T06:02:56.222Z,62.30
2023-03-04T06:05:24.563Z,63.73
2023-03-04T06:07:52.070Z,74.67
2023-03-04T06:10:19.516Z,74.50
2023-03-04T06:12:47.148Z,71.03
2023-03-04T06:15:14.853Z,64.50
2023-03-04T06:17:42.818Z,59.17
2023-03-04T06:20:11.316Z,65.23
2023-03-04T06:22:38.778Z,62.57
2023-03-04T06:25:06.522Z,60.23
2023-03-04T06:27:34.042Z,65.77
2023-03-04T06:30:02.162Z,60.53
2023-03-04T06:32:29.687Z,60.03
2023-03-04T06:34:57.209Z,61.00
2023-03-04T06:37:24.836Z,60.90
2023-03-04T06:39:52.606Z,60.07
2023-03-04T06:42:20.095Z,62.87
2023-03-04T06:44:49.571Z,61.57
2023-03-04T06:47:18.856Z,63.37
2023-03-04T06:49:46.264Z,65.53
2023-03-04T06:52:13.705Z,57.60
2023-03-04T06:54:41.157Z,59.13
2023-03-04T06:57:08.649Z,63.43
2023-03-04T06:59:36.066Z,64.80
2023-03-04T07:02:03.532Z,59.77
2023-03-04T07:04:31.032Z,60.40
2023-03-04T07:06:58.504Z,62.30
2023-03-04T07:09:25.905Z,62.07
2023-03-04T07:11:53.473Z,60.10
2023-03-04T07:14:22.895Z,60.07
2023-03-04T07:16:51.539Z,57.63
2023-03-04T07:19:19.031Z,57.87
2023-03-04T07:21:47.016Z,62.20
2023-03-04T07:24:14.449Z,60.77
2023-03-04T07:26:42.105Z,59.97
2023-03-04T07:29:09.608Z,62.00
2023-03-04T07:31:37.360Z,57.37
2023-03-04T07:34:06.455Z,56.87
2023-03-04T07:36:34.708Z,58.73
2023-03-04T07:39:02.184Z,55.83
2023-03-04T07:41:30.221Z,57.17
2023-03-04T07:43:58.488Z,54.97
2023-03-04T07:46:26.148Z,54.77
2023-03-04T07:48:53.724Z,54.00
2023-03-04T07:51:22.732Z,54.90
2023-03-04T07:53:51.225Z,52.17
2023-03-04T07:56:30.291Z,52.60
2023-03-04T07:58:58.076Z,56.57
2023-03-04T08:01:33.002Z,52.40
2023-03-04T08:04:00.782Z,57.33
2023-03-04T08:06:28.458Z,52.47
2023-03-04T08:09:00.420Z,51.77
2023-03-04T08:11:28.901Z,50.53
2023-03-04T08:13:56.672Z,49.77
2023-03-04T08:16:25.119Z,51.17
2023-03-04T08:18:53.837Z,49.87
2023-03-04T08:21:22.649Z,52.20
2023-03-04T08:23:50.335Z,50.77
2023-03-04T08:26:22.524Z,49.70
2023-03-04T08:28:50.437Z,96.47
2023-03-04T08:31:18.881Z,93.60
2023-03-04T08:33:47.038Z,93.47
2023-03-04T08:36:15.118Z,72.87
2023-03-04T08:38:42.818Z,70.13
2023-03-04T08:41:10.573Z,67.03
2023-03-04T08:43:38.119Z,59.47
2023-03-04T08:46:06.310Z,53.00
2023-03-04T08:48:34.110Z,53.80
2023-03-04T08:51:01.612Z,53.73
2023-03-04T08:53:29.099Z,51.53
2023-03-04T08:55:56.604Z,52.43
2023-03-04T08:58:24.016Z,52.97
2023-03-04T09:00:51.704Z,50.50
2023-03-04T09:03:20.568Z,53.77
2023-03-04T09:05:49.380Z,56.37
2023-03-04T09:08:17.005Z,51.97
2023-03-04T09:10:45.447Z,52.73
2023-03-04T09:13:14.790Z,53.67
2023-03-04T09:15:49.293Z,53.33
2023-03-04T09:18:22.158Z,53.20
2023-03-04T09:20:49.805Z,52.23
2023-03-04T09:23:17.535Z,53.43
2023-03-04T09:25:46.520Z,52.47
2023-03-04T09:28:15.030Z,50.03
2023-03-04T09:30:42.504Z,50.80
2023-03-04T09:33:10.048Z,52.30
2023-03-04T09:35:37.746Z,50.60
2023-03-04T09:38:05.286Z,50.93
2023-03-04T09:40:43.534Z,50.03
2023-03-04T09:43:32.140Z,50.47
2023-03-04T09:46:00.741Z,48.40
2023-03-04T09:48:29.888Z,47.93
2023-03-04T09:51:26.823Z,47.00
2023-03-04T09:54:04.427Z,48.73
2023-03-04T09:56:34.529Z,48.20
2023-03-04T09:59:20.474Z,47.13
2023-03-04T10:01:53.181Z,47.17
2023-03-04T10:04:42.099Z,48.73
2023-03-04T10:07:18.387Z,46.73
2023-03-04T10:09:52.987Z,48.83
2023-03-04T10:12:22.554Z,48.10
2023-03-04T10:15:00.601Z,47.43
2023-03-04T10:17:46.015Z,49.70
2023-03-04T10:20:17.504Z,46.03
2023-03-04T10:22:57.231Z,47.33
2023-03-04T10:25:27.282Z,48.90
2023-03-04T10:28:06.808Z,49.37
2023-03-04T10:31:06.653Z,47.20
2023-03-04T10:33:35.913Z,46.20
2023-03-04T10:36:23.557Z,48.37
2023-03-04T10:38:54.613Z,47.80
2023-03-04T10:41:24.939Z,46.23
2023-03-04T10:44:12.681Z,48.20
2023-03-04T10:46:44.908Z,48.27
2023-03-04T10:49:12.860Z,47.87
2023-03-04T10:51:51.642Z,45.57
2023-03-04T10:54:32.629Z,46.00
2023-03-04T10:57:01.640Z,45.87
2023-03-04T11:00:01.532Z,48.03
2023-03-04T11:02:33.870Z,47.10
2023-03-04T11:05:30.626Z,46.53
2023-03-04T11:08:01.032Z,45.80
2023-03-04T11:10:46.325Z,49.17
2023-03-04T11:13:17.690Z,45.47
2023-03-04T11:15:59.301Z,46.87
2023-03-04T11:18:47.625Z,49.73
2023-03-04T11:21:17.895Z,48.83
2023-03-04T11:23:51.613Z,48.93
2023-03-04T11:26:40.265Z,46.00
2023-03-04T11:29:19.784Z,48.23
2023-03-04T11:31:50.488Z,45.60
2023-03-04T11:34:31.769Z,47.57
2023-03-04T11:37:19.556Z,50.30
2023-03-04T11:39:55.700Z,46.33
2023-03-04T11:42:30.971Z,48.73
2023-03-04T11:44:58.555Z,49.57
2023-03-04T11:47:52.283Z,48.40
2023-03-04T11:50:39.272Z,46.30
2023-03-04T11:53:29.942Z,45.63
2023-03-04T11:56:04.850Z,48.03
2023-03-04T11:58:40.577Z,48.77
2023-03-04T12:01:10.591Z,46.20
2023-03-04T12:03:57.499Z,46.47
2023-03-04T12:06:45.293Z,45.40
2023-03-04T12:09:31.772Z,45.23
2023-03-04T12:12:19.624Z,45.23
2023-03-04T12:14:59.190Z,43.77
2023-03-04T12:17:52.338Z,43.77
2023-03-04T12:20:49.166Z,42.00
2023-03-04T12:23:29.009Z,45.20
2023-03-04T12:26:22.644Z,44.40
2023-03-04T12:29:05.034Z,42.70
2023-03-04T12:31:50.428Z,41.33
2023-03-04T12:34:32.086Z,42.37
2023-03-04T12:37:28.471Z,42.37
2023-03-04T12:40:19.462Z,42.67
2023-03-04T12:42:58.287Z,43.50
2023-03-04T12:45:33.761Z,41.83
2023-03-04T12:48:19.806Z,42.40
2023-03-04T12:51:05.904Z,41.47
2023-03-04T12:53:52.253Z,40.07
2023-03-04T12:56:33.896Z,42.13
2023-03-04T12:59:01.711Z,41.73
2023-03-04T13:01:40.240Z,40.93
2023-03-04T13:04:26.306Z,42.40
2023-03-04T13:07:26.322Z,42.00
2023-03-04T13:09:59.869Z,43.37
2023-03-04T13:12:27.577Z,40.53
2023-03-04T13:15:30.352Z,40.33
2023-03-04T13:18:02.536Z,40.07
2023-03-04T13:20:42.728Z,38.63
2023-03-04T13:23:32.051Z,41.10
2023-03-04T13:26:20.887Z,38.60
2023-03-04T13:28:53.486Z,40.43
2023-03-04T13:31:24.328Z,38.13
2023-03-04T13:33:53.344Z,39.17
2023-03-04T13:36:31.499Z,39.43
2023-03-04T13:39:19.180Z,37.07
2023-03-04T13:41:50.772Z,38.83
2023-03-04T13:44:34.959Z,36.33
2023-03-04T13:47:09.938Z,38.63
2023-03-04T13:49:38.000Z,38.00
2023-03-04T13:52:24.188Z,37.97
2023-03-04T13:54:51.705Z,37.90
2023-03-04T13:57:22.428Z,36.77
2023-03-04T13:59:51.554Z,34.93
2023-03-04T14:02:22.655Z,39.43
2023-03-04T14:05:00.511Z,36.43
2023-03-04T14:07:29.358Z,37.23
2023-03-04T14:09:58.088Z,36.53
2023-03-04T14:12:26.739Z,37.93
2023-03-04T14:15:14.392Z,37.73
2023-03-04T14:17:45.512Z,35.27
2023-03-04T14:20:29.423Z,34.53
2023-03-04T14:22:57.828Z,32.77
2023-03-04T14:25:36.789Z,32.77
2023-03-04T14:28:12.151Z,30.60
2023-03-04T14:30:43.208Z,31.80
2023-03-04T14:33:20.741Z,30.60
2023-03-04T14:35:49.382Z,31.43
2023-03-04T14:38:38.215Z,31.30
2023-03-04T14:41:11.661Z,31.17
2023-03-04T14:43:50.651Z,31.07
2023-03-04T14:46:19.066Z,31.20
2023-03-04T14:48:50.002Z,31.93
2023-03-04T14:51:38.368Z,33.80
2023-03-04T14:54:06.649Z,32.87
2023-03-04T14:56:37.068Z,31.67
2023-03-04T14:59:04.874Z,30.97
2023-03-04T15:01:34.463Z,32.13
2023-03-04T15:04:06.429Z,31.30
2023-03-04T15:06:41.517Z,34.23
2023-03-04T15:09:18.771Z,33.27
2023-03-04T15:11:48.303Z,34.67
2023-03-04T15:14:34.229Z,34.70
2023-03-04T15:17:01.769Z,35.83
2023-03-04T15:19:30.231Z,33.93
2023-03-04T15:22:04.753Z,35.03
2023-03-04T15:24:32.287Z,34.03
2023-03-04T15:26:59.797Z,33.80
2023-03-04T15:29:27.341Z,35.90
2023-03-04T15:31:54.768Z,34.20
2023-03-04T15:34:22.245Z,36.30
2023-03-04T15:36:51.471Z,33.43
2023-03-04T15:39:19.924Z,33.43
2023-03-04T15:41:48.492Z,30.60
2023-03-04T15:44:17.198Z,32.57
2023-03-04T15:46:44.655Z,32.43
2023-03-04T15:49:12.450Z,33.87
2023-03-04T15:51:40.080Z,35.63
2023-03-04T15:54:14.376Z,33.17
2023-03-04T15:56:42.023Z,33.47
2023-03-04T15:59:14.590Z,29.67
2023-03-04T16:01:42.328Z,31.40
2023-03-04T16:04:17.272Z,32.00
2023-03-04T16:06:46.236Z,33.20
2023-03-04T16:09:16.887Z,33.10
2023-03-04T16:11:47.603Z,34.50
2023-03-04T16:14:15.731Z,32.00
2023-03-04T16:16:44.466Z,31.20
2023-03-04T16:19:12.050Z,32.07
2023-03-04T16:21:39.678Z,31.17
2023-03-04T16:24:07.217Z,29.97
2023-03-04T16:26:37.785Z,30.87
2023-03-04T16:29:05.208Z,31.50
2023-03-04T16:31:32.773Z,30.00
2023-03-04T16:34:00.316Z,30.47
2023-03-04T16:36:28.233Z,31.10
2023-03-04T16:38:56.185Z,29.77
2023-03-04T16:41:25.982Z,27.57
2023-03-04T16:43:55.798Z,28.13
2023-03-04T16:46:23.619Z,26.77
2023-03-04T16:48:51.180Z,27.73
2023-03-04T16:51:20.348Z,27.70
2023-03-04T16:54:00.303Z,27.73
2023-03-04T16:56:27.893Z,25.40
2023-03-04T16:58:55.344Z,25.77
2023-03-04T17:01:24.352Z,26.27
2023-03-04T17:03:52.196Z,25.70
2023-03-04T17:06:20.962Z,24.97
2023-03-04T17:08:48.470Z,24.77
2023-03-04T17:11:20.107Z,25.13
2023-03-04T17:13:48.146Z,23.77
2023-03-04T17:16:15.903Z,25.17
2023-03-04T17:18:44.417Z,23.50
2023-03-04T17:21:13.192Z,23.20
2023-03-04T17:23:40.715Z,23.33
2023-03-04T17:26:09.325Z,22.57
2023-03-04T17:28:37.374Z,24.57
2023-03-04T17:31:12.323Z,22.33
2023-03-04T17:33:39.965Z,21.80
2023-03-04T17:36:09.899Z,23.30
2023-03-04T17:38:39.015Z,22.90
2023-03-04T17:41:07.434Z,23.27
2023-03-04T17:43:34.917Z,22.73
2023-03-04T17:46:07.385Z,21.53
2023-03-04T17:48:34.898Z,21.13
2023-03-04T17:51:02.357Z,21.63
2023-03-04T17:53:29.890Z,20.43
2023-03-04T17:56:00.187Z,21.07
2023-03-04T17:58:28.678Z,21.40
2023-03-04T18:01:01.247Z,20.83
2023-03-04T18:03:28.855Z,20.23
2023-03-04T18:05:56.320Z,20.60
2023-03-04T18:08:24.381Z,20.00
2023-03-04T18:10:51.986Z,22.13
2023-03-04T18:13:20.613Z,21.17
2023-03-04T18:15:48.046Z,20.30
2023-03-04T18:18:15.615Z,22.27
2023-03-04T18:20:43.046Z,21.30
2023-03-04T18:23:10.521Z,21.73
2023-03-04T18:25:38.081Z,21.97
2023-03-04T18:28:05.598Z,21.40
2023-03-04T18:30:33.051Z,20.77
2023-03-04T18:33:02.228Z,22.80
2023-03-04T18:35:29.712Z,23.20
2023-03-04T18:37:57.277Z,24.53
2023-03-04T18:40:24.685Z,23.70
2023-03-04T18:42:52.357Z,22.70
2023-03-04T18:45:21.518Z,22.17
2023-03-04T18:47:50.716Z,22.10
2023-03-04T18:50:18.958Z,23.37
2023-03-04T18:52:55.918Z,23.07
2023-03-04T18:55:23.838Z,23.07
2023-03-04T18:57:52.673Z,21.83
2023-03-04T19:00:21.442Z,23.17
2023-03-04T19:02:52.756Z,22.87
2023-03-04T19:05:22.279Z,24.03
2023-03-04T19:07:49.686Z,23.73
2023-03-04T19:10:18.504Z,23.33
2023-03-04T19:12:46.028Z,23.57
2023-03-04T19:15:13.974Z,22.93
2023-03-04T19:17:41.526Z,22.97
2023-03-04T19:20:10.307Z,23.43
2023-03-04T19:22:37.833Z,23.57
2023-03-04T19:25:05.556Z,23.83
2023-03-04T19:27:33.076Z,23.83
2023-03-04T19:30:00.602Z,24.23
2023-03-04T19:32:28.145Z,24.47
2023-03-04T19:34:55.668Z,24.77
2023-03-04T19:37:23.055Z,22.83
2023-03-04T19:39:50.595Z,25.93
2023-03-04T19:42:18.065Z,24.83
2023-03-04T19:44:45.540Z,25.40
2023-03-04T19:47:13.170Z,26.13
2023-03-04T19:49:40.844Z,26.83
2023-03-04T19:52:08.512Z,27.03
2023-03-04T19:54:36.085Z,27.77
2023-03-04T19:57:03.628Z,28.47
2023-03-04T19:59:31.155Z,26.43
2023-03-04T20:02:01.264Z,26.40
2023-03-04T20:04:28.918Z,25.90
2023-03-04T20:06:56.354Z,27.47
2023-03-04T20:09:23.787Z,26.73
2023-03-04T20:11:58.347Z,25.67
2023-03-04T20:14:27.544Z,26.37
2023-03-04T20:16:55.335Z,27.57
2023-03-04T20:19:22.858Z,25.17
2023-03-04T20:21:50.297Z,26.37
2023-03-04T20:24:19.233Z,27.27
2023-03-04T20:26:46.853Z,28.43
2023-03-04T20:29:14.272Z,28.73
2023-03-04T20:31:44.286Z,30.50
2023-03-04T20:34:11.818Z,28.33
2023-03-04T20:36:39.487Z,29.60
2023-03-04T20:39:21.513Z,28.97
2023-03-04T20:41:54.901Z,30.87
2023-03-04T20:44:22.365Z,29.47
2023-03-04T20:46:49.827Z,29.03
2023-03-04T20:49:23.545Z,29.87
2023-03-04T20:51:51.542Z,30.03
2023-03-04T20:54:19.033Z,28.80
2023-03-04T20:56:46.830Z,28.40
2023-03-04T20:59:14.241Z,29.27
2023-03-04T21:01:43.642Z,28.30
2023-03-04T21:04:11.638Z,29.70
2023-03-04T21:06:39.758Z,30.70
2023-03-04T21:09:08.468Z,30.27
2023-03-04T21:11:42.778Z,28.77
2023-03-04T21:14:19.554Z,30.37
2023-03-04T21:16:47.130Z,30.83
2023-03-04T21:19:18.644Z,30.37
2023-03-04T21:21:47.005Z,30.40
2023-03-04T21:24:15.615Z,29.60
2023-03-04T21:26:47.716Z,30.70
2023-03-04T21:29:16.009Z,31.53
2023-03-04T21:31:45.159Z,31.47
2023-03-04T21:34:15.853Z,29.57
2023-03-04T21:36:43.413Z,31.33
2023-03-04T21:39:15.567Z,33.90
2023-03-04T21:41:43.131Z,33.00
2023-03-04T21:44:18.059Z,31.13
2023-03-04T21:46:56.444Z,31.87
2023-03-04T21:49:24.012Z,32.10
2023-03-04T21:51:51.495Z,33.30
2023-03-04T21:54:19.288Z,33.13
2023-03-04T21:56:47.037Z,34.47
2023-03-04T21:59:15.038Z,34.43
2023-03-04T22:01:42.820Z,31.47
2023-03-04T22:04:10.294Z,32.97
2023-03-04T22:06:39.362Z,32.30
2023-03-04T22:09:07.621Z,33.00
2023-03-04T22:11:35.270Z,32.40
2023-03-04T22:14:03.677Z,32.00
2023-03-04T22:16:32.796Z,34.33
2023-03-04T22:19:01.676Z,34.77
2023-03-04T22:21:29.083Z,33.30
2023-03-04T22:23:56.510Z,35.60
2023-03-04T22:26:32.936Z,35.23
2023-03-04T22:29:02.068Z,34.23
2023-03-04T22:31:31.693Z,34.07
2023-03-04T22:34:03.544Z,32.87
2023-03-04T22:36:31.751Z,35.23
2023-03-04T22:38:59.562Z,33.60
2023-03-04T22:41:27.108Z,36.50
2023-03-04T22:43:54.687Z,33.13
2023-03-04T22:46:24.524Z,34.07
2023-03-04T22:48:52.844Z,34.33
2023-03-04T22:51:20.835Z,32.23
2023-03-04T22:53:49.082Z,35.77
2023-03-04T22:56:16.618Z,35.10
2023-03-04T22:58:45.281Z,36.67
2023-03-04T23:01:13.616Z,34.63
2023-03-04T23:03:41.691Z,37.53
2023-03-04T23:06:10.478Z,35.90
2023-03-04T23:08:38.753Z,34.60
2023-03-04T23:11:14.199Z,36.90
2023-03-04T23:13:42.021Z,36.67
2023-03-04T23:16:10.547Z,35.87
2023-03-04T23:18:38.705Z,35.20
2023-03-04T23:21:13.972Z,34.80
2023-03-04T23:23:41.986Z,37.53
2023-03-04T23:26:26.235Z,37.13
2023-03-04T23:28:55.797Z,33.77
2023-03-04T23:31:23.708Z,37.20
2023-03-04T23:33:51.222Z,35.10
2023-03-04T23:36:19.672Z,35.47
2023-03-04T23:38:49.062Z,36.50
2023-03-04T23:41:17.912Z,36.20
2023-03-04T23:43:45.670Z,37.27
2023-03-04T23:46:13.639Z,36.03
2023-03-04T23:48:43.303Z,34.17
2023-03-04T23:51:11.020Z,35.43
2023-03-04T23:53:39.187Z,35.83
2023-03-04T23:56:10.052Z,34.93
2023-03-04T23:58:37.933Z,35.53
